Time;durP1;ratioP1;P1;durP2;ratioP2;P2;SDS_P1;SDS_P2;PMS_P1;PMS_P2;Temp;Humidity;BMP_temperature;BMP_pressure;BME280_temperature;BME280_humidity;BME280_pressure;Samples;Min_cycle;Max_cycle;Signal;HPM_P1;HPM_P2
2022/11/22 00:00:24;;;;;;;;;;;;;;;3.11;78.68;96196.75;5088118;28;19935;-60
2022/11/22 00:02:52;;;;;;;;;;;;;;;3.15;79.06;96194.25;5090993;28;19931;-60
2022/11/22 00:08:14;;;;;;;;;;;;;;;3.12;78.63;96178.75;5090999;28;20373;-59
2022/11/22 00:10:42;;;;;;;;;;;;;;;3.18;78.33;96172.16;5090978;28;20287;-59
2022/11/22 00:13:10;;;;;;;;;;;;;;;3.13;78.38;96170.38;5109163;27;19924;-59
2022/11/22 00:15:38;;;;;;;;;;;;;;;3.19;78.80;96168.38;5084575;28;19925;-59
2022/11/22 00:18:06;;;;;;;;;;;;;;;3.14;78.17;96161.25;5100766;27;19973;-59
2022/11/22 00:20:35;;;;;;;;;;;;;;;3.17;78.48;96153.69;5081089;28;19924;-59
2022/11/22 00:23:02;;;;;;;;;;;;;;;3.11;78.05;96151.13;5078371;28;19931;-60
2022/11/22 00:25:32;;;;;;;;;;;;;;;3.19;78.24;96135.38;5091874;28;20011;-60
2022/11/22 00:28:00;;;;;;;;;;;;;;;3.21;78.07;96141.25;5088171;28;19924;-59
2022/11/22 00:30:31;;;;;;;;;;;;;;;3.24;77.83;96143.28;5086007;28;19925;-59
2022/11/22 00:33:01;;;;;;;;;;;;;;;3.27;77.99;96148.84;5086556;28;19958;-59
2022/11/22 00:35:29;;;;;;;;;;;;;;;3.27;78.22;96150.75;5090329;28;20373;-60
2022/11/22 00:37:57;;;;;;;;;;;;;;;3.24;78.08;96148.66;5079066;28;19932;-59
2022/11/22 00:40:25;;;;;;;;;;;;;;;3.20;78.52;96159.25;5090922;28;19950;-59
2022/11/22 00:42:55;;;;;;;;;;;;;;;3.24;78.67;96154.81;5084031;28;19924;-59
2022/11/22 00:45:23;;;;;;;;;;;;;;;3.25;78.33;96150.25;5095268;28;20376;-59
2022/11/22 00:47:51;;;;;;;;;;;;;;;3.32;78.10;96139.88;5087235;28;19924;-59
2022/11/22 00:50:22;;;;;;;;;;;;;;;3.34;77.90;96143.03;5083464;28;19924;-59
2022/11/22 00:53:15;;;;;;;;;;;;;;;3.38;77.51;96130.59;5088541;28;19928;-59
2022/11/22 00:55:44;;;;;;;;;;;;;;;3.42;77.04;96128.88;5093146;28;19924;-59
2022/11/22 00:58:14;;;;;;;;;;;;;;;3.37;77.54;96129.81;5083195;28;19931;-59
2022/11/22 01:00:41;;;;;;;;;;;;;;;3.31;77.55;96127.56;5088119;28;19974;-59
2022/11/22 01:03:33;;;;;;;;;;;;;;;3.40;77.29;96120.34;5093479;28;19923;-59
2022/11/22 01:06:02;;;;;;;;;;;;;;;3.36;77.26;96122.06;5080105;28;20011;-58
2022/11/22 01:08:37;;;;;;;;;;;;;;;3.36;77.00;96125.53;5085952;28;19951;-59
2022/11/22 01:11:05;;;;;;;;;;;;;;;3.38;76.54;96122.53;5097858;28;19924;-59
2022/11/22 01:13:34;;;;;;;;;;;;;;;3.32;77.33;96110.34;5089604;28;19924;-59
2022/11/22 01:16:02;;;;;;;;;;;;;;;3.40;77.21;96113.06;5077108;28;20451;-59
2022/11/22 01:18:30;;;;;;;;;;;;;;;3.38;77.23;96117.19;5076556;28;19935;-59
2022/11/22 01:20:59;;;;;;;;;;;;;;;3.39;76.94;96119.53;5082724;28;19924;-59
2022/11/22 01:23:27;;;;;;;;;;;;;;;3.40;77.29;96112.28;5091802;28;20014;-58
2022/11/22 01:25:55;;;;;;;;;;;;;;;3.39;76.80;96113.38;5087180;28;19931;-59
2022/11/22 01:28:23;;;;;;;;;;;;;;;3.40;76.66;96120.34;5084052;28;19924;-59
2022/11/22 01:30:53;;;;;;;;;;;;;;;3.39;76.86;96119.53;5081779;28;20384;-60
2022/11/22 01:33:22;;;;;;;;;;;;;;;3.41;77.03;96119.25;5092583;28;20023;-59
2022/11/22 01:35:55;;;;;;;;;;;;;;;3.44;76.85;96109.78;5089610;28;19974;-59
2022/11/22 01:38:23;;;;;;;;;;;;;;;3.45;76.89;96103.31;5100486;28;19978;-60
2022/11/22 01:40:52;;;;;;;;;;;;;;;3.44;76.61;96104.41;5085430;28;19933;-60
2022/11/22 01:43:21;;;;;;;;;;;;;;;3.42;77.16;96100.16;5088372;28;19924;-59
2022/11/22 01:45:52;;;;;;;;;;;;;;;3.40;76.71;96105.00;5080927;28;19924;-59
2022/11/22 01:48:31;;;;;;;;;;;;;;;3.44;77.04;96094.47;5096659;28;19931;-60
2022/11/22 01:51:02;;;;;;;;;;;;;;;3.50;75.85;96103.16;5075563;28;19930;-59
2022/11/22 01:53:33;;;;;;;;;;;;;;;3.45;76.29;96098.72;5087667;28;20051;-59
2022/11/22 01:56:07;;;;;;;;;;;;;;;3.45;76.58;96101.41;5090999;28;19964;-58
2022/11/22 01:58:35;;;;;;;;;;;;;;;3.40;77.02;96098.84;5079334;28;19929;-59
2022/11/22 02:01:05;;;;;;;;;;;;;;;3.45;76.56;96100.63;5094008;28;19931;-59
2022/11/22 02:03:33;;;;;;;;;;;;;;;3.37;76.65;96100.28;5080391;28;20289;-59
2022/11/22 02:06:01;;;;;;;;;;;;;;;3.39;76.67;96105.34;5084456;28;19924;-59
2022/11/22 02:08:31;;;;;;;;;;;;;;;3.31;76.52;96098.84;5095231;28;19924;-59
2022/11/22 02:11:00;;;;;;;;;;;;;;;3.32;76.42;96097.72;5085235;28;19948;-59
2022/11/22 02:13:27;;;;;;;;;;;;;;;3.42;75.89;96091.31;5085174;28;19928;-60
2022/11/22 02:15:56;;;;;;;;;;;;;;;3.44;75.75;96088.31;5084730;28;19928;-58
2022/11/22 02:18:25;;;;;;;;;;;;;;;3.35;76.37;96083.66;5082176;28;19925;-59
2022/11/22 02:20:53;;;;;;;;;;;;;;;3.34;76.68;96076.72;5095594;28;20017;-60
2022/11/22 02:23:23;;;;;;;;;;;;;;;3.34;77.25;96057.16;5088947;28;19924;-59
2022/11/22 02:25:54;;;;;;;;;;;;;;;3.38;76.72;96058.13;5100736;28;20380;-59
2022/11/22 02:28:24;;;;;;;;;;;;;;;3.38;77.49;96074.22;5090739;28;19924;-59
2022/11/22 02:30:52;;;;;;;;;;;;;;;3.39;77.05;96081.97;5098475;28;19936;-59
2022/11/22 02:33:26;;;;;;;;;;;;;;;3.43;76.53;96090.19;5100198;28;19924;-60
2022/11/22 02:35:54;;;;;;;;;;;;;;;3.39;76.89;96087.31;5090569;28;20258;-59
2022/11/22 02:38:23;;;;;;;;;;;;;;;3.40;77.21;96098.84;5085455;28;19935;-60
2022/11/22 02:40:52;;;;;;;;;;;;;;;3.39;77.21;96113.38;5089090;28;19931;-59
2022/11/22 02:43:22;;;;;;;;;;;;;;;3.46;76.99;96118.31;5102464;28;19981;-59
2022/11/22 02:45:50;;;;;;;;;;;;;;;3.50;76.45;96125.44;5100551;28;19935;-59
2022/11/22 02:48:43;;;;;;;;;;;;;;;3.56;76.59;96129.56;5094863;28;19932;-59
2022/11/22 02:51:15;;;;;;;;;;;;;;;3.56;76.71;96124.19;5092744;28;19924;-59
2022/11/22 02:53:43;;;;;;;;;;;;;;;3.62;76.62;96128.34;5091233;28;20645;-59
2022/11/22 02:56:11;;;;;;;;;;;;;;;3.70;76.46;96123.31;5091848;28;19939;-59
2022/11/22 02:58:41;;;;;;;;;;;;;;;3.69;76.28;96117.16;5092874;28;19928;-59
2022/11/22 03:01:09;;;;;;;;;;;;;;;3.66;75.61;96112.38;5085761;28;19924;-59
2022/11/22 03:03:37;;;;;;;;;;;;;;;3.68;75.91;96116.38;5088335;28;19934;-59
2022/11/22 03:06:06;;;;;;;;;;;;;;;3.73;76.19;96111.94;5085786;28;19932;-59
2022/11/22 03:08:34;;;;;;;;;;;;;;;3.78;76.56;96109.09;5105473;27;19925;-59
2022/11/22 03:11:02;;;;;;;;;;;;;;;3.78;76.45;96103.72;5097666;28;20349;-59
2022/11/22 03:13:30;;;;;;;;;;;;;;;3.79;76.23;96110.72;5104532;28;19924;-59
2022/11/22 03:15:59;;;;;;;;;;;;;;;3.84;75.94;96115.94;5093234;28;19932;-59
2022/11/22 03:18:27;;;;;;;;;;;;;;;3.83;76.22;96122.41;5119350;27;19928;-59
2022/11/22 03:20:55;;;;;;;;;;;;;;;3.82;76.23;96126.19;5076037;28;20011;-59
2022/11/22 03:23:23;;;;;;;;;;;;;;;3.81;75.94;96125.41;5079944;28;19935;-59
2022/11/22 03:25:51;;;;;;;;;;;;;;;3.82;75.89;96126.97;5091810;28;19928;-59
2022/11/22 03:28:22;;;;;;;;;;;;;;;3.85;76.19;96136.31;5093718;28;19936;-59
2022/11/22 03:30:50;;;;;;;;;;;;;;;3.88;76.22;96136.47;5093801;28;20449;-60
2022/11/22 03:39:52;;;;;;;;;;;;;;;3.96;75.14;96126.88;5084370;28;20391;-60
2022/11/22 03:42:21;;;;;;;;;;;;;;;3.96;75.37;96134.16;5101236;28;19989;-59
2022/11/22 03:44:49;;;;;;;;;;;;;;;4.01;75.06;96126.72;5088736;28;19993;-60
2022/11/22 03:47:17;;;;;;;;;;;;;;;4.05;75.28;96126.88;5082482;28;19970;-59
2022/11/22 03:49:49;;;;;;;;;;;;;;;4.14;74.48;96127.69;5095527;28;19981;-59
2022/11/22 03:52:17;;;;;;;;;;;;;;;4.12;74.20;96119.97;5079460;28;20144;-59
2022/11/22 03:54:46;;;;;;;;;;;;;;;4.04;74.78;96131.47;5075960;28;19924;-59
2022/11/22 03:57:15;;;;;;;;;;;;;;;4.01;74.80;96131.31;5085024;28;20339;-60
2022/11/22 03:59:44;;;;;;;;;;;;;;;3.98;75.84;96134.63;5086173;28;20357;-59
2022/11/22 04:02:12;;;;;;;;;;;;;;;3.92;75.48;96128.59;5083564;28;19924;-59
2022/11/22 04:04:40;;;;;;;;;;;;;;;3.96;75.33;96140.31;5085223;28;19928;-59
2022/11/22 04:07:10;;;;;;;;;;;;;;;3.97;76.00;96149.94;5088161;28;19943;-59
2022/11/22 04:09:38;;;;;;;;;;;;;;;3.93;75.85;96144.41;5088387;28;19978;-59
2022/11/22 04:12:06;;;;;;;;;;;;;;;3.98;76.13;96151.53;5081297;28;19928;-59
2022/11/22 04:17:43;;;;;;;;;;;;;;;4.20;75.82;96153.31;5092146;28;19924;-60
2022/11/22 04:23:26;;;;;;;;;;;;;;;4.07;75.97;96157.72;5092464;28;19928;-60
2022/11/22 04:25:59;;;;;;;;;;;;;;;4.05;76.78;96161.81;5092224;28;19924;-59
2022/11/22 04:28:27;;;;;;;;;;;;;;;4.06;77.15;96160.72;5093036;28;20009;-59
2022/11/22 04:39:54;;;;;;;;;;;;;;;4.08;76.32;96167.38;5085404;28;19932;-59
2022/11/22 04:45:09;;;;;;;;;;;;;;;4.15;76.27;96173.06;5091238;28;19928;-60
2022/11/22 04:53:11;;;;;;;;;;;;;;;4.27;75.80;96171.69;5081231;28;19932;-59
2022/11/22 04:55:41;;;;;;;;;;;;;;;4.41;74.88;96169.66;5081307;28;20305;-59
2022/11/22 04:58:09;;;;;;;;;;;;;;;4.32;75.53;96164.28;5077511;28;19985;-59
2022/11/22 05:00:37;;;;;;;;;;;;;;;4.27;75.74;96155.56;5071497;28;19929;-59
2022/11/22 05:06:00;;;;;;;;;;;;;;;4.28;76.63;96171.38;5089772;28;20352;-59
2022/11/22 05:08:29;;;;;;;;;;;;;;;4.26;76.63;96164.72;5090281;28;20399;-60
2022/11/22 05:11:00;;;;;;;;;;;;;;;4.15;76.67;96166.91;5085208;28;20277;-58
2022/11/22 05:13:30;;;;;;;;;;;;;;;4.27;76.88;96171.69;5089690;28;20286;-59
2022/11/22 05:15:58;;;;;;;;;;;;;;;4.29;76.78;96161.41;5091267;28;19973;-59
2022/11/22 05:18:27;;;;;;;;;;;;;;;4.29;77.05;96161.41;5088724;28;19924;-59
2022/11/22 05:20:55;;;;;;;;;;;;;;;4.31;76.08;96175.31;5085417;28;19924;-60
2022/11/22 05:26:10;;;;;;;;;;;;;;;4.20;77.19;96172.13;5080973;28;19931;-59
2022/11/22 05:28:39;;;;;;;;;;;;;;;4.30;77.05;96163.00;5083227;28;19928;-59
2022/11/22 05:31:07;;;;;;;;;;;;;;;4.39;77.66;96169.19;5085775;28;19924;-59
2022/11/22 05:33:36;;;;;;;;;;;;;;;4.42;76.20;96160.47;5106039;28;20425;-59
2022/11/22 05:36:05;;;;;;;;;;;;;;;4.46;76.20;96158.75;5084986;28;19932;-62
2022/11/22 05:38:59;;;;;;;;;;;;;;;4.26;76.32;96162.03;5091352;28;19924;-62
2022/11/22 05:41:56;;;;;;;;;;;;;;;4.25;76.91;96171.19;5081929;28;19927;-62
2022/11/22 05:44:26;;;;;;;;;;;;;;;4.29;77.06;96167.56;5088863;28;19924;-62
2022/11/22 05:49:46;;;;;;;;;;;;;;;4.27;77.40;96169.81;5084594;28;20288;-63
2022/11/22 05:52:15;;;;;;;;;;;;;;;4.29;77.90;96180.22;5077014;28;19932;-62
2022/11/22 05:54:43;;;;;;;;;;;;;;;4.34;78.13;96186.25;5081817;28;19939;-62
2022/11/22 05:57:11;;;;;;;;;;;;;;;4.35;77.74;96187.84;5081455;28;19997;-62
2022/11/22 05:59:40;;;;;;;;;;;;;;;4.36;78.20;96191.31;5085373;28;20362;-62
2022/11/22 06:02:11;;;;;;;;;;;;;;;4.39;78.03;96178.03;5087350;28;19924;-62
2022/11/22 06:04:39;;;;;;;;;;;;;;;4.44;77.97;96193.25;5084536;28;20364;-62
2022/11/22 06:07:11;;;;;;;;;;;;;;;4.46;78.08;96199.09;5094118;28;19931;-62
2022/11/22 06:09:39;;;;;;;;;;;;;;;4.46;77.83;96210.63;5084671;28;19936;-62
2022/11/22 06:12:07;;;;;;;;;;;;;;;4.50;77.31;96210.00;5084205;28;20289;-62
2022/11/22 06:15:00;;;;;;;;;;;;;;;4.51;77.25;96212.38;5065859;28;19974;-62
2022/11/22 06:17:28;;;;;;;;;;;;;;;4.52;77.73;96211.28;5086372;28;19928;-62
2022/11/22 06:19:57;;;;;;;;;;;;;;;4.54;77.88;96216.34;5084317;28;20284;-62
2022/11/22 06:22:31;;;;;;;;;;;;;;;4.41;77.70;96202.72;5076318;28;20030;-62
2022/11/22 06:24:59;;;;;;;;;;;;;;;4.46;78.30;96205.25;5074185;28;19924;-62
2022/11/22 06:27:29;;;;;;;;;;;;;;;4.50;78.17;96208.13;5081818;28;19931;-62
2022/11/22 06:29:57;;;;;;;;;;;;;;;4.54;77.93;96219.84;5086141;28;19947;-62
2022/11/22 06:32:27;;;;;;;;;;;;;;;4.55;78.23;96207.19;5082458;28;19947;-63
2022/11/22 06:34:55;;;;;;;;;;;;;;;4.56;77.99;96220.31;5088608;28;19961;-62
2022/11/22 06:37:23;;;;;;;;;;;;;;;4.61;78.59;96222.84;5085179;28;19931;-62
2022/11/22 06:39:51;;;;;;;;;;;;;;;4.64;78.10;96233.00;5089543;28;19928;-62
2022/11/22 06:42:20;;;;;;;;;;;;;;;4.66;77.67;96225.38;5065380;28;19932;-64
2022/11/22 06:44:48;;;;;;;;;;;;;;;4.66;78.22;96230.78;5065429;28;19925;-62
2022/11/22 06:47:17;;;;;;;;;;;;;;;4.69;77.89;96223.97;5064713;28;19929;-62
2022/11/22 06:49:46;;;;;;;;;;;;;;;4.69;78.05;96219.38;5058281;28;20340;-63
2022/11/22 06:52:15;;;;;;;;;;;;;;;4.63;77.90;96226.00;5062884;28;19931;-63
2022/11/22 06:54:43;;;;;;;;;;;;;;;4.72;78.04;96223.34;5063541;28;19928;-63
2022/11/22 06:57:12;;;;;;;;;;;;;;;4.72;77.39;96231.41;5066040;28;20433;-62
2022/11/22 06:59:40;;;;;;;;;;;;;;;4.65;78.02;96234.56;5067651;28;19928;-65
2022/11/22 07:02:10;;;;;;;;;;;;;;;4.72;78.08;96240.25;5071569;28;19924;-64
2022/11/22 07:04:38;;;;;;;;;;;;;;;4.81;77.64;96242.97;5046316;28;20088;-63
2022/11/22 07:07:27;;;;;;;;;;;;;;;4.85;77.60;96243.16;5050332;28;19932;-63
2022/11/22 07:09:55;;;;;;;;;;;;;;;4.87;77.33;96243.63;5063937;28;20034;-63
2022/11/22 07:12:23;;;;;;;;;;;;;;;4.88;78.28;96250.56;5055114;28;19978;-63
2022/11/22 07:14:52;;;;;;;;;;;;;;;4.89;77.11;96257.53;5071721;28;19929;-63
2022/11/22 07:17:20;;;;;;;;;;;;;;;4.86;77.99;96258.97;5065259;28;19928;-63
2022/11/22 07:19:48;;;;;;;;;;;;;;;4.90;77.85;96264.50;5050199;28;20385;-63
2022/11/22 07:22:16;;;;;;;;;;;;;;;4.92;77.49;96265.78;5069990;28;19967;-63
2022/11/22 07:24:46;;;;;;;;;;;;;;;4.94;77.67;96273.53;5052936;28;19928;-63
2022/11/22 07:27:14;;;;;;;;;;;;;;;4.94;77.71;96270.84;5055468;28;19935;-63
2022/11/22 07:29:42;;;;;;;;;;;;;;;4.97;77.58;96286.38;5054728;28;20344;-63
2022/11/22 07:32:11;;;;;;;;;;;;;;;4.99;78.21;96286.84;5067161;28;19931;-63
2022/11/22 07:34:39;;;;;;;;;;;;;;;5.05;78.43;96290.16;5042327;28;19947;-63
2022/11/22 07:37:10;;;;;;;;;;;;;;;5.13;77.94;96287.50;5056726;28;19925;-63
2022/11/22 07:39:38;;;;;;;;;;;;;;;5.17;77.99;96291.16;5052752;28;20378;-63
2022/11/22 07:42:08;;;;;;;;;;;;;;;5.21;78.11;96294.78;5077851;28;20373;-63
2022/11/22 07:44:37;;;;;;;;;;;;;;;5.26;77.70;96301.91;5066066;28;19924;-63
2022/11/22 07:47:05;;;;;;;;;;;;;;;5.33;77.99;96314.94;5078600;28;19932;-63
2022/11/22 07:49:35;;;;;;;;;;;;;;;5.34;77.71;96319.97;5082261;28;19925;-63
2022/11/22 07:52:03;;;;;;;;;;;;;;;5.37;77.53;96316.63;5079207;28;19955;-63
2022/11/22 07:54:31;;;;;;;;;;;;;;;5.44;77.60;96316.97;5083580;28;19924;-63
2022/11/22 07:57:00;;;;;;;;;;;;;;;5.53;77.27;96325.84;5088177;28;19931;-63
2022/11/22 07:59:29;;;;;;;;;;;;;;;5.57;77.88;96336.78;5088746;28;19928;-63
2022/11/22 08:01:58;;;;;;;;;;;;;;;5.57;77.47;96334.09;5082102;28;20305;-63
2022/11/22 08:04:26;;;;;;;;;;;;;;;5.68;77.73;96340.72;5080667;28;19924;-63
2022/11/22 08:07:19;;;;;;;;;;;;;;;5.73;77.59;96353.25;5064207;28;19925;-63
2022/11/22 08:09:48;;;;;;;;;;;;;;;5.70;77.51;96349.31;5090657;28;19924;-63
2022/11/22 08:12:20;;;;;;;;;;;;;;;5.78;78.09;96353.88;5082548;28;19931;-63
2022/11/22 08:14:50;;;;;;;;;;;;;;;5.84;77.62;96359.13;5073471;28;19932;-63
2022/11/22 08:17:21;;;;;;;;;;;;;;;5.89;77.28;96356.25;5063359;28;19924;-63
2022/11/22 08:19:52;;;;;;;;;;;;;;;5.97;77.06;96360.91;5061414;28;19978;-63
2022/11/22 08:22:20;;;;;;;;;;;;;;;5.99;77.03;96361.34;5087794;28;19924;-63
2022/11/22 08:24:48;;;;;;;;;;;;;;;6.07;77.04;96367.84;5058110;28;19939;-63
2022/11/22 08:27:16;;;;;;;;;;;;;;;6.13;77.18;96367.38;5062331;28;19924;-63
2022/11/22 08:29:44;;;;;;;;;;;;;;;6.20;76.94;96375.75;5078080;28;19931;-67
2022/11/22 08:32:14;;;;;;;;;;;;;;;6.18;76.55;96379.88;5076775;28;19935;-67
2022/11/22 08:35:07;;;;;;;;;;;;;;;6.23;77.03;96372.44;5077701;28;19979;-63
2022/11/22 08:37:36;;;;;;;;;;;;;;;6.32;76.25;96374.31;5090882;28;20431;-63
2022/11/22 08:40:05;;;;;;;;;;;;;;;6.30;75.96;96366.53;5076675;28;19928;-63
2022/11/22 08:42:33;;;;;;;;;;;;;;;6.43;75.98;96367.44;5090448;28;19931;-63
2022/11/22 08:45:01;;;;;;;;;;;;;;;6.47;75.37;96365.69;5074103;28;19978;-63
2022/11/22 08:48:05;;;;;;;;;;;;;;;6.50;76.00;96368.56;5069821;28;21445;-63
2022/11/22 08:50:34;;;;;;;;;;;;;;;6.58;75.09;96372.31;5078430;28;19928;-63
2022/11/22 08:53:03;;;;;;;;;;;;;;;6.63;74.83;96372.16;5078424;28;20441;-63
2022/11/22 08:55:32;;;;;;;;;;;;;;;6.61;74.95;96371.69;5090013;28;20427;-63
2022/11/22 08:58:00;;;;;;;;;;;;;;;6.56;75.19;96375.34;5066831;28;20034;-63
2022/11/22 09:00:29;;;;;;;;;;;;;;;6.60;74.79;96375.47;5081660;28;19934;-63
2022/11/22 09:03:00;;;;;;;;;;;;;;;6.62;75.28;96367.88;5068114;28;19925;-63
2022/11/22 09:06:02;;;;;;;;;;;;;;;6.68;75.03;96373.88;5071927;28;19924;-64
2022/11/22 09:08:50;;;;;;;;;;;;;;;6.69;75.26;96378.94;5077708;28;19946;-63
2022/11/22 09:11:29;;;;;;;;;;;;;;;6.74;74.35;96378.75;5079123;28;20372;-63
2022/11/22 09:13:59;;;;;;;;;;;;;;;6.89;73.41;96379.34;5082312;28;20346;-63
2022/11/22 09:16:28;;;;;;;;;;;;;;;6.88;73.67;96383.19;5057169;28;19982;-63
2022/11/22 09:18:57;;;;;;;;;;;;;;;6.90;73.76;96389.03;5062384;28;20409;-63
2022/11/22 09:21:26;;;;;;;;;;;;;;;6.91;73.91;96399.50;5080176;28;19931;-63
2022/11/22 09:23:55;;;;;;;;;;;;;;;6.95;74.08;96400.44;5078754;28;20003;-64
2022/11/22 09:26:24;;;;;;;;;;;;;;;6.93;73.73;96399.19;5076365;28;19928;-64
2022/11/22 09:28:53;;;;;;;;;;;;;;;6.95;73.39;96397.75;5070226;28;19924;-63
2022/11/22 09:31:26;;;;;;;;;;;;;;;6.94;73.91;96398.06;5090201;28;20023;-63
2022/11/22 09:33:55;;;;;;;;;;;;;;;6.99;73.09;96403.28;5087014;28;19974;-63
2022/11/22 09:36:29;;;;;;;;;;;;;;;7.05;72.85;96402.78;5089490;28;19941;-63
2022/11/22 09:39:00;;;;;;;;;;;;;;;7.04;73.01;96405.81;5085282;28;19930;-63
2022/11/22 09:42:09;;;;;;;;;;;;;;;7.06;73.32;96393.56;5080846;28;19965;-63
2022/11/22 09:44:40;;;;;;;;;;;;;;;7.14;72.79;96391.94;5074573;28;19924;-63
2022/11/22 09:47:10;;;;;;;;;;;;;;;7.15;72.51;96400.84;5082251;28;20054;-63
2022/11/22 09:49:40;;;;;;;;;;;;;;;7.14;71.90;96400.03;5087046;28;19920;-63
2022/11/22 09:52:09;;;;;;;;;;;;;;;7.05;72.25;96408.19;5067474;28;19920;-63
2022/11/22 09:55:03;;;;;;;;;;;;;;;7.08;72.42;96395.91;5100447;28;19934;-63
2022/11/22 09:57:56;;;;;;;;;;;;;;;7.16;71.85;96407.81;5081738;28;19927;-63
2022/11/22 10:00:25;;;;;;;;;;;;;;;7.15;72.07;96407.03;5091860;28;19939;-64
2022/11/22 10:02:54;;;;;;;;;;;;;;;7.20;72.29;96403.34;5073969;28;19924;-63
2022/11/22 10:05:56;;;;;;;;;;;;;;;7.28;71.73;96405.19;5087627;28;20024;-62
2022/11/22 10:08:28;;;;;;;;;;;;;;;7.29;71.53;96401.38;5091746;28;20066;-62
2022/11/22 10:10:58;;;;;;;;;;;;;;;7.32;71.65;96412.31;5083787;28;20349;-62
2022/11/22 10:13:30;;;;;;;;;;;;;;;7.23;71.76;96410.78;5078649;28;19920;-62
2022/11/22 10:16:00;;;;;;;;;;;;;;;7.24;72.08;96415.84;5073484;28;20364;-63
2022/11/22 10:21:26;;;;;;;;;;;;;;;7.33;71.98;96423.91;5085827;28;19920;-63
2022/11/22 10:23:55;;;;;;;;;;;;;;;7.31;72.41;96418.84;5068176;28;19971;-64
2022/11/22 10:26:25;;;;;;;;;;;;;;;7.40;71.86;96420.69;5067522;28;19927;-63
2022/11/22 10:29:00;;;;;;;;;;;;;;;7.49;71.96;96424.16;5066098;28;19924;-62
2022/11/22 10:31:29;;;;;;;;;;;;;;;7.57;71.28;96434.13;5085102;28;19927;-63
2022/11/22 10:36:54;;;;;;;;;;;;;;;7.52;71.20;96428.91;5070144;28;19971;-62
2022/11/22 10:39:51;;;;;;;;;;;;;;;7.53;71.61;96427.78;5081838;28;19995;-63
2022/11/22 10:42:28;;;;;;;;;;;;;;;7.57;70.91;96428.72;5055205;28;19937;-66
2022/11/22 10:44:58;;;;;;;;;;;;;;;7.58;71.21;96433.00;5040377;28;19932;-63
2022/11/22 10:47:39;;;;;;;;;;;;;;;7.69;69.97;96436.13;5057676;28;19925;-62
2022/11/22 10:50:33;;;;;;;;;;;;;;;7.70;67.41;96427.66;5065548;28;19940;-62
2022/11/22 10:53:04;;;;;;;;;;;;;;;7.74;68.01;96428.59;5068315;28;19947;-64
2022/11/22 10:55:43;;;;;;;;;;;;;;;7.84;67.43;96439.03;5059146;28;20294;-62
2022/11/22 10:58:17;;;;;;;;;;;;;;;7.75;66.79;96441.00;5048056;28;19925;-69
2022/11/22 11:00:47;;;;;;;;;;;;;;;7.76;66.93;96442.56;5060045;28;19978;-64
2022/11/22 11:03:24;;;;;;;;;;;;;;;7.84;66.56;96438.25;5064046;28;19951;-63
2022/11/22 11:05:53;;;;;;;;;;;;;;;7.80;66.22;96443.50;5066074;28;20305;-62
2022/11/22 11:08:42;;;;;;;;;;;;;;;7.90;65.79;96446.94;5056734;28;19971;-63
2022/11/22 11:11:30;;;;;;;;;;;;;;;7.79;65.60;96451.94;5065496;28;19942;-63
2022/11/22 11:14:01;;;;;;;;;;;;;;;7.82;66.02;96445.88;5057279;28;20404;-62
2022/11/22 11:16:30;;;;;;;;;;;;;;;7.78;65.07;96445.75;5065512;28;19929;-63
2022/11/22 11:18:58;;;;;;;;;;;;;;;7.93;65.44;96446.28;5064168;28;19931;-72
2022/11/22 11:21:30;;;;;;;;;;;;;;;7.84;65.58;96444.44;5075167;28;19924;-70
2022/11/22 11:23:59;;;;;;;;;;;;;;;7.90;64.96;96441.53;5049217;28;19929;-70
2022/11/22 11:26:28;;;;;;;;;;;;;;;7.93;65.59;96436.25;5062217;28;19925;-71
2022/11/22 11:29:11;;;;;;;;;;;;;;;7.97;64.72;96431.75;5041598;28;19975;-71
2022/11/22 11:31:43;;;;;;;;;;;;;;;7.93;65.44;96430.84;5069355;28;20287;-72
2022/11/22 11:34:20;;;;;;;;;;;;;;;8.02;64.25;96438.88;5047690;28;19925;-70
2022/11/22 11:36:50;;;;;;;;;;;;;;;8.04;64.06;96436.63;5047845;28;19956;-71
2022/11/22 11:39:19;;;;;;;;;;;;;;;8.12;63.69;96439.28;5063227;28;19925;-71
2022/11/22 11:41:48;;;;;;;;;;;;;;;8.00;62.63;96435.75;5064047;28;19924;-70
2022/11/22 11:44:25;;;;;;;;;;;;;;;8.07;64.56;96425.16;5063774;28;19924;-71
2022/11/22 11:46:55;;;;;;;;;;;;;;;8.19;63.61;96427.91;5074437;28;20258;-71
2022/11/22 11:49:24;;;;;;;;;;;;;;;8.21;64.38;96431.09;5079774;28;19946;-70
2022/11/22 11:51:54;;;;;;;;;;;;;;;8.26;63.83;96436.31;5067382;28;19924;-71
2022/11/22 11:54:22;;;;;;;;;;;;;;;8.28;62.79;96433.25;5084456;28;19924;-70
2022/11/22 11:56:51;;;;;;;;;;;;;;;8.25;63.14;96421.19;5066012;28;20369;-71
2022/11/22 11:59:20;;;;;;;;;;;;;;;8.23;62.12;96418.03;5071398;28;19924;-71
2022/11/22 12:01:57;;;;;;;;;;;;;;;8.23;62.33;96411.81;5082543;28;19925;-71
2022/11/22 12:04:26;;;;;;;;;;;;;;;8.19;63.23;96410.91;5087002;28;20376;-70
2022/11/22 12:06:56;;;;;;;;;;;;;;;8.19;63.04;96419.03;5084832;28;19928;-71
2022/11/22 12:09:31;;;;;;;;;;;;;;;8.14;63.43;96415.38;5082081;28;20015;-71
2022/11/22 12:12:03;;;;;;;;;;;;;;;8.14;63.26;96412.69;5077944;28;19928;-71
2022/11/22 12:14:32;;;;;;;;;;;;;;;8.20;63.88;96412.47;5061411;28;19924;-71
2022/11/22 12:17:22;;;;;;;;;;;;;;;8.19;63.62;96405.50;5084003;28;19924;-70
2022/11/22 12:19:57;;;;;;;;;;;;;;;8.22;63.50;96402.94;5087011;28;19928;-71
2022/11/22 12:22:26;;;;;;;;;;;;;;;8.36;64.26;96394.53;5072655;28;19935;-72
2022/11/22 12:25:17;;;;;;;;;;;;;;;8.37;62.83;96386.09;5060950;28;19928;-71
2022/11/22 12:28:05;;;;;;;;;;;;;;;8.42;63.53;96389.72;5080882;28;19924;-71
2022/11/22 12:30:33;;;;;;;;;;;;;;;8.39;62.84;96383.06;5093143;28;19932;-71
2022/11/22 12:33:03;;;;;;;;;;;;;;;8.30;61.26;96380.38;5085489;28;19930;-71
2022/11/22 12:35:32;;;;;;;;;;;;;;;8.24;61.94;96376.31;5087158;28;19931;-71
2022/11/22 12:38:01;;;;;;;;;;;;;;;8.25;62.19;96372.47;5061407;28;19934;-73
2022/11/22 12:40:32;;;;;;;;;;;;;;;8.20;62.07;96380.00;5085444;28;19935;-71
2022/11/22 12:43:00;;;;;;;;;;;;;;;8.19;61.64;96384.63;5058303;28;20374;-71
2022/11/22 12:45:30;;;;;;;;;;;;;;;8.21;60.77;96384.31;5063133;28;19986;-71
2022/11/22 12:47:58;;;;;;;;;;;;;;;8.14;61.48;96380.22;5038426;28;19936;-72
2022/11/22 12:50:28;;;;;;;;;;;;;;;8.19;61.41;96378.44;5054130;28;19940;-71
2022/11/22 12:52:58;;;;;;;;;;;;;;;8.19;61.36;96378.44;5065315;28;19929;-73
2022/11/22 12:55:27;;;;;;;;;;;;;;;8.10;61.65;96373.91;5056127;28;19932;-71
2022/11/22 12:57:59;;;;;;;;;;;;;;;8.09;61.73;96368.81;5058317;28;19971;-71
2022/11/22 13:00:28;;;;;;;;;;;;;;;8.14;61.55;96366.69;5056471;28;19932;-72
2022/11/22 13:02:59;;;;;;;;;;;;;;;8.09;61.98;96369.59;5043882;28;19982;-72
2022/11/22 13:05:55;;;;;;;;;;;;;;;8.20;61.33;96369.97;5065092;28;20010;-71
2022/11/22 13:08:24;;;;;;;;;;;;;;;8.14;61.71;96369.41;5061064;28;19983;-71
2022/11/22 13:10:56;;;;;;;;;;;;;;;8.13;61.79;96372.44;5051645;28;19928;-72
2022/11/22 13:13:25;;;;;;;;;;;;;;;8.08;61.70;96369.94;5061751;28;19951;-71
2022/11/22 13:15:55;;;;;;;;;;;;;;;8.09;61.73;96376.94;5051664;28;19933;-71
2022/11/22 13:18:24;;;;;;;;;;;;;;;8.11;62.45;96372.78;5046110;28;19964;-71
2022/11/22 13:20:55;;;;;;;;;;;;;;;8.19;62.34;96373.81;5065536;28;19978;-72
2022/11/22 13:23:27;;;;;;;;;;;;;;;8.23;60.66;96374.75;5038574;28;19929;-71
2022/11/22 13:25:58;;;;;;;;;;;;;;;8.26;59.07;96367.88;5041752;28;19924;-71
2022/11/22 13:28:28;;;;;;;;;;;;;;;8.26;60.08;96368.69;5064596;28;19928;-71
2022/11/22 13:31:26;;;;;;;;;;;;;;;8.14;59.05;96371.31;5059575;28;19968;-71
2022/11/22 13:33:58;;;;;;;;;;;;;;;8.02;60.10;96369.38;5052521;28;19931;-72
2022/11/22 13:36:44;;;;;;;;;;;;;;;7.94;60.62;96364.06;5041801;28;19967;-71
2022/11/22 13:39:16;;;;;;;;;;;;;;;7.96;60.35;96361.78;5055963;28;19929;-71
2022/11/22 13:41:50;;;;;;;;;;;;;;;7.97;61.48;96360.66;5060276;28;19934;-72
2022/11/22 13:44:25;;;;;;;;;;;;;;;7.93;60.93;96360.53;5085812;28;19989;-72
2022/11/22 13:46:56;;;;;;;;;;;;;;;7.94;62.23;96370.25;5072063;28;20463;-72
2022/11/22 13:49:39;;;;;;;;;;;;;;;7.95;62.22;96368.34;5084755;28;20273;-72
2022/11/22 13:52:28;;;;;;;;;;;;;;;7.94;62.51;96372.16;5078338;28;19930;-72
2022/11/22 13:55:00;;;;;;;;;;;;;;;7.95;62.89;96374.53;5072770;28;19924;-72
2022/11/22 14:00:35;;;;;;;;;;;;;;;7.94;63.54;96377.56;5058881;28;19925;-71
2022/11/22 14:03:28;;;;;;;;;;;;;;;7.91;62.59;96380.91;5082949;28;19974;-72
2022/11/22 14:05:57;;;;;;;;;;;;;;;7.82;62.51;96381.78;5069408;28;19925;-72
2022/11/22 14:08:29;;;;;;;;;;;;;;;7.79;63.30;96384.38;5075248;28;19937;-72
2022/11/22 14:11:08;;;;;;;;;;;;;;;7.71;62.21;96388.69;5063282;28;19928;-74